^^
Saratoga-Weather Station Historical Data
Daily Summary for May 10, 2022 Units:  Both    English   Metric
Daily Weekly Monthly Yearly Custom
  High: Low: Average:
Temperature: 78.8 °F /  26 °C 51.6 °F /  10.9 °C 64.9 °F /  18.3 °C
Dew Point: 56.1 °F /  13.4 °C 46.2 °F /  7.9 °C 50.9 °F /  10.5 °C
Humidity: 82% 37% 63%
Wind Speed: 6mph /  9.7km/h - 1.1mph /  1.8km/h
Wind Gust: 10mph /  16.1km/h - -
Wind- - SE
Pressure: 30.2 in /  1024.0 hPa 30.1 in /  1020.3 hPa -
Precipitation: 0 in /  0.0 mm    
Historical Graphs
 
 
Tabular Data for May 10, 2022
Time Temperature Dew Point Pressure Wind Wind Speed Wind Gust Humidity Rainfall Rate (Hourly) solar
00:02 58.8 °F /  14.9 °C 51.6 °F /  10.9 °C 30.2in /  1023.4hPa Calm   2mph /  3.2km/h 77% 0in /  0.0mm 0 W/m2
00:07 58.8 °F /  14.9 °C 51.3 °F /  10.7 °C 30.2in /  1023.4hPa NNE 0.9mph /  1.4km/h 3mph /  4.8km/h 76% 0in /  0.0mm 0 W/m2
00:12 58.8 °F /  14.9 °C 50.9 °F /  10.5 °C 30.2in /  1023.4hPa Calm   4mph /  6.4km/h 75% 0in /  0.0mm 0 W/m2
00:17 58.8 °F /  14.9 °C 50.5 °F /  10.3 °C 30.2in /  1023.7hPa SW 2.9mph /  4.7km/h 3mph /  4.8km/h 74% 0in /  0.0mm 0 W/m2
00:22 59 °F /  15 °C 50.7 °F /  10.4 °C 30.2in /  1023.7hPa NW 0.9mph /  1.4km/h 5mph /  8km/h 74% 0in /  0.0mm 0 W/m2
00:27 58.8 °F /  14.9 °C 50.5 °F /  10.3 °C 30.2in /  1023.7hPa NE 0.9mph /  1.4km/h 3mph /  4.8km/h 74% 0in /  0.0mm 0 W/m2
00:32 58.8 °F /  14.9 °C 50.2 °F /  10.1 °C 30.2in /  1023.7hPa NE 0.9mph /  1.4km/h 4mph /  6.4km/h 73% 0in /  0.0mm 0 W/m2
00:37 58.6 °F /  14.8 °C 50 °F /  10 °C 30.2in /  1023.7hPa NNE 0.9mph /  1.4km/h 1mph /  1.6km/h 73% 0in /  0.0mm 0 W/m2
00:42 58.6 °F /  14.8 °C 49.6 °F /  9.8 °C 30.2in /  1023.7hPa SE 0.9mph /  1.4km/h 2mph /  3.2km/h 72% 0in /  0.0mm 0 W/m2
00:47 58.3 °F /  14.6 °C 49.6 °F /  9.8 °C 30.2in /  1023.7hPa Calm   2mph /  3.2km/h 73% 0in /  0.0mm 0 W/m2
00:52 57.9 °F /  14.4 °C 49.6 °F /  9.8 °C 30.2in /  1023.7hPa SSE 0.9mph /  1.4km/h 2mph /  3.2km/h 74% 0in /  0.0mm 0 W/m2
00:57 57.6 °F /  14.2 °C 49.3 °F /  9.6 °C 30.2in /  1023.7hPa SW 0.9mph /  1.4km/h 3mph /  4.8km/h 74% 0in /  0.0mm 0 W/m2
01:07 57 °F /  13.9 °C 48.7 °F /  9.3 °C 30.2in /  1023.7hPa Calm   1mph /  1.6km/h 74% 0in /  0.0mm 0 W/m2
01:12 56.8 °F /  13.8 °C 48.6 °F /  9.2 °C 30.2in /  1023.7hPa Calm   3mph /  4.8km/h 74% 0in /  0.0mm 0 W/m2
01:17 56.7 °F /  13.7 °C 48 °F /  8.9 °C 30.2in /  1023.7hPa Calm   1mph /  1.6km/h 73% 0in /  0.0mm 0 W/m2
01:27 56.7 °F /  13.7 °C 48 °F /  8.9 °C 30.2in /  1023.7hPa Calm   2mph /  3.2km/h 73% 0in /  0.0mm 0 W/m2
01:32 56.8 °F /  13.8 °C 47.8 °F /  8.8 °C 30.2in /  1023.7hPa WNW 2mph /  3.2km/h 6mph /  9.7km/h 72% 0in /  0.0mm 0 W/m2
01:37 56.7 °F /  13.7 °C 47.7 °F /  8.7 °C 30.2in /  1023.7hPa South 0.9mph /  1.4km/h 2mph /  3.2km/h 72% 0in /  0.0mm 0 W/m2
01:42 56.7 °F /  13.7 °C 48 °F /  8.9 °C 30.2in /  1023.4hPa South 0.9mph /  1.4km/h 1mph /  1.6km/h 73% 0in /  0.0mm 0 W/m2
01:47 56.5 °F /  13.6 °C 48 °F /  8.9 °C 30.2in /  1023.4hPa Calm   3mph /  4.8km/h 73% 0in /  0.0mm 0 W/m2
01:52 55.9 °F /  13.3 °C 47.5 °F /  8.6 °C 30.2in /  1023.4hPa SW 0.9mph /  1.4km/h 3mph /  4.8km/h 73% 0in /  0.0mm 0 W/m2
01:57 55.9 °F /  13.3 °C 47.5 °F /  8.6 °C 30.2in /  1023.4hPa SW 2mph /  3.2km/h 2mph /  3.2km/h 73% 0in /  0.0mm 0 W/m2
02:03 55.8 °F /  13.2 °C 47.3 °F /  8.5 °C 30.2in /  1023.4hPa West 0.9mph /  1.4km/h 3mph /  4.8km/h 73% 0in /  0.0mm 0 W/m2
02:08 55.9 °F /  13.3 °C 47.5 °F /  8.6 °C 30.2in /  1023.4hPa North 0.9mph /  1.4km/h 2mph /  3.2km/h 73% 0in /  0.0mm 0 W/m2
02:13 55.9 °F /  13.3 °C 47.5 °F /  8.6 °C 30.2in /  1023.4hPa Calm   3mph /  4.8km/h 73% 0in /  0.0mm 0 W/m2
02:18 55.9 °F /  13.3 °C 47.5 °F /  8.6 °C 30.2in /  1023.4hPa WSW 0.9mph /  1.4km/h 3mph /  4.8km/h 73% 0in /  0.0mm 0 W/m2
02:23 55.9 °F /  13.3 °C 47.5 °F /  8.6 °C 30.2in /  1023.4hPa Calm   3mph /  4.8km/h 73% 0in /  0.0mm 0 W/m2
02:28 55.9 °F /  13.3 °C 47.5 °F /  8.6 °C 30.2in /  1023.4hPa West 0.9mph /  1.4km/h 1mph /  1.6km/h 73% 0in /  0.0mm 0 W/m2
02:33 55.6 °F /  13.1 °C 47.1 °F /  8.4 °C 30.2in /  1023.4hPa West 2mph /  3.2km/h 3mph /  4.8km/h 73% 0in /  0.0mm 0 W/m2
02:38 55.6 °F /  13.1 °C 47.1 °F /  8.4 °C 30.2in /  1023.4hPa Calm   3mph /  4.8km/h 73% 0in /  0.0mm 0 W/m2
02:43 55.6 °F /  13.1 °C 47.1 °F /  8.4 °C 30.2in /  1023.4hPa North 0.9mph /  1.4km/h 2mph /  3.2km/h 73% 0in /  0.0mm 0 W/m2
02:48 55.6 °F /  13.1 °C 47.1 °F /  8.4 °C 30.2in /  1023.4hPa West 0.9mph /  1.4km/h 4mph /  6.4km/h 73% 0in /  0.0mm 0 W/m2
02:53 55.6 °F /  13.1 °C 47.1 °F /  8.4 °C 30.2in /  1023.4hPa Calm   1mph /  1.6km/h 73% 0in /  0.0mm 0 W/m2
02:58 55.6 °F /  13.1 °C 46.8 °F /  8.2 °C 30.2in /  1023.4hPa Calm   1mph /  1.6km/h 72% 0in /  0.0mm 0 W/m2
03:03 55.6 °F /  13.1 °C 47.1 °F /  8.4 °C 30.2in /  1023.4hPa Calm   1mph /  1.6km/h 73% 0in /  0.0mm 0 W/m2
03:08 55.6 °F /  13.1 °C 47.5 °F /  8.6 °C 30.2in /  1023.4hPa Calm   2mph /  3.2km/h 74% 0in /  0.0mm 0 W/m2
03:13 55.2 °F /  12.9 °C 47.1 °F /  8.4 °C 30.2in /  1023.4hPa Calm     74% 0in /  0.0mm 0 W/m2
03:18 54.9 °F /  12.7 °C 47.1 °F /  8.4 °C 30.2in /  1023.4hPa Calm   2mph /  3.2km/h 75% 0in /  0.0mm 0 W/m2
03:23 54.9 °F /  12.7 °C 47.1 °F /  8.4 °C 30.2in /  1023.4hPa Calm   2mph /  3.2km/h 75% 0in /  0.0mm 0 W/m2
03:28 54.7 °F /  12.6 °C 47.3 °F /  8.5 °C 30.2in /  1023.4hPa Calm   2mph /  3.2km/h 76% 0in /  0.0mm 0 W/m2
03:33 54.3 °F /  12.4 °C 46.9 °F /  8.3 °C 30.2in /  1023.4hPa SW 0.9mph /  1.4km/h 3mph /  4.8km/h 76% 0in /  0.0mm 0 W/m2
03:38 54.3 °F /  12.4 °C 46.6 °F /  8.1 °C 30.2in /  1023.4hPa Calm   2mph /  3.2km/h 75% 0in /  0.0mm 0 W/m2
03:43 54.3 °F /  12.4 °C 46.9 °F /  8.3 °C 30.2in /  1023.4hPa West 0.9mph /  1.4km/h 3mph /  4.8km/h 76% 0in /  0.0mm 0 W/m2
03:48 54.3 °F /  12.4 °C 46.9 °F /  8.3 °C 30.2in /  1023.4hPa Calm   2mph /  3.2km/h 76% 0in /  0.0mm 0 W/m2
03:53 54.1 °F /  12.3 °C 46.8 °F /  8.2 °C 30.2in /  1023.4hPa West 0.9mph /  1.4km/h 2mph /  3.2km/h 76% 0in /  0.0mm 0 W/m2
03:58 54.1 °F /  12.3 °C 47.1 °F /  8.4 °C 30.2in /  1023.4hPa Calm   2mph /  3.2km/h 77% 0in /  0.0mm 0 W/m2
04:03 54 °F /  12.2 °C 46.9 °F /  8.3 °C 30.2in /  1023.4hPa West 0.9mph /  1.4km/h 1mph /  1.6km/h 77% 0in /  0.0mm 0 W/m2
04:08 53.8 °F /  12.1 °C 46.8 °F /  8.2 °C 30.2in /  1023.4hPa Calm   2mph /  3.2km/h 77% 0in /  0.0mm 0 W/m2
04:13 53.6 °F /  12 °C 46.9 °F /  8.3 °C 30.2in /  1023.4hPa West 0.9mph /  1.4km/h 1mph /  1.6km/h 78% 0in /  0.0mm 0 W/m2
04:18 53.8 °F /  12.1 °C 47.1 °F /  8.4 °C 30.2in /  1023.4hPa Calm     78% 0in /  0.0mm 0 W/m2
04:23 53.8 °F /  12.1 °C 47.1 °F /  8.4 °C 30.2in /  1023.4hPa WSW 2.9mph /  4.7km/h 3mph /  4.8km/h 78% 0in /  0.0mm 0 W/m2
04:28 53.6 °F /  12 °C 46.9 °F /  8.3 °C 30.2in /  1023.4hPa WSW 0.9mph /  1.4km/h 2mph /  3.2km/h 78% 0in /  0.0mm 0 W/m2
04:33 53.4 °F /  11.9 °C 46.8 °F /  8.2 °C 30.2in /  1023.4hPa WSW 0.9mph /  1.4km/h 1mph /  1.6km/h 78% 0in /  0.0mm 0 W/m2
04:38 53.2 °F /  11.8 °C 46.9 °F /  8.3 °C 30.2in /  1023.4hPa WSW 0.9mph /  1.4km/h 2mph /  3.2km/h 79% 0in /  0.0mm 0 W/m2
04:43 53.1 °F /  11.7 °C 46.8 °F /  8.2 °C 30.2in /  1023.4hPa WSW 0.9mph /  1.4km/h 2mph /  3.2km/h 79% 0in /  0.0mm 0 W/m2
04:48 53.4 °F /  11.9 °C 46.8 °F /  8.2 °C 30.2in /  1023.4hPa Calm     78% 0in /  0.0mm 0 W/m2
04:53 53.8 °F /  12.1 °C 47.1 °F /  8.4 °C 30.2in /  1023.4hPa SW 0.9mph /  1.4km/h 2mph /  3.2km/h 78% 0in /  0.0mm 0 W/m2
04:58 53.8 °F /  12.1 °C 47.1 °F /  8.4 °C 30.2in /  1023.4hPa Calm   2mph /  3.2km/h 78% 0in /  0.0mm 0 W/m2
05:03 53.4 °F /  11.9 °C 46.8 °F /  8.2 °C 30.2in /  1023.4hPa SW 0.9mph /  1.4km/h 2mph /  3.2km/h 78% 0in /  0.0mm 0 W/m2
05:08 53.2 °F /  11.8 °C 46.6 °F /  8.1 °C 30.2in /  1023.4hPa Calm   2mph /  3.2km/h 78% 0in /  0.0mm 0 W/m2
05:13 53.2 °F /  11.8 °C 46.6 °F /  8.1 °C 30.2in /  1023.4hPa Calm   2mph /  3.2km/h 78% 0in /  0.0mm 0 W/m2
05:18 53.1 °F /  11.7 °C 46.8 °F /  8.2 °C 30.2in /  1023.4hPa SW 0.9mph /  1.4km/h 2mph /  3.2km/h 79% 0in /  0.0mm 0 W/m2
05:23 53.1 °F /  11.7 °C 46.8 °F /  8.2 °C 30.2in /  1023.4hPa Calm     79% 0in /  0.0mm 0 W/m2
05:28 53.1 °F /  11.7 °C 46.8 °F /  8.2 °C 30.2in /  1023.4hPa Calm   2mph /  3.2km/h 79% 0in /  0.0mm 0 W/m2
05:33 53.1 °F /  11.7 °C 46.8 °F /  8.2 °C 30.2in /  1023.4hPa SSW 0.9mph /  1.4km/h 1mph /  1.6km/h 79% 0in /  0.0mm 0 W/m2
05:38 53.1 °F /  11.7 °C 46.8 °F /  8.2 °C 30.2in /  1023.4hPa SSW 0.9mph /  1.4km/h 2mph /  3.2km/h 79% 0in /  0.0mm 0 W/m2
05:43 52.9 °F /  11.6 °C 46.6 °F /  8.1 °C 30.2in /  1023.4hPa Calm   2mph /  3.2km/h 79% 0in /  0.0mm 0 W/m2
05:48 52.7 °F /  11.5 °C 46.4 °F /  8 °C 30.2in /  1023.4hPa Calm     79% 0in /  0.0mm 0 W/m2
05:53 52.5 °F /  11.4 °C 46.6 °F /  8.1 °C 30.2in /  1023.4hPa SSW 0.9mph /  1.4km/h 2mph /  3.2km/h 80% 0in /  0.0mm 0 W/m2
05:58 52.3 °F /  11.3 °C 46.4 °F /  8 °C 30.2in /  1023.4hPa Calm     80% 0in /  0.0mm 0 W/m2
06:03 52.2 °F /  11.2 °C 46.2 °F /  7.9 °C 30.2in /  1023.4hPa Calm     80% 0in /  0.0mm 0 W/m2
06:08 52 °F /  11.1 °C 46.4 °F /  8 °C 30.2in /  1023.4hPa Calm     81% 0in /  0.0mm 5 W/m2
06:13 51.8 °F /  11 °C 46.2 °F /  7.9 °C 30.2in /  1023.4hPa Calm     81% 0in /  0.0mm 7 W/m2
06:18 51.6 °F /  10.9 °C 46.2 °F /  7.9 °C 30.2in /  1023.4hPa Calm     82% 0in /  0.0mm 11 W/m2
06:23 51.6 °F /  10.9 °C 46.2 °F /  7.9 °C 30.2in /  1023.4hPa SE 0.9mph /  1.4km/h 2mph /  3.2km/h 82% 0in /  0.0mm 12 W/m2
06:28 51.8 °F /  11 °C 46.4 °F /  8 °C 30.2in /  1023.4hPa Calm     82% 0in /  0.0mm 14 W/m2
06:33 51.8 °F /  11 °C 46.4 °F /  8 °C 30.2in /  1023.4hPa Calm   1mph /  1.6km/h 82% 0in /  0.0mm 18 W/m2
06:38 51.8 °F /  11 °C 46.4 °F /  8 °C 30.2in /  1023.4hPa Calm     82% 0in /  0.0mm 19 W/m2
06:43 52 °F /  11.1 °C 46.6 °F /  8.1 °C 30.2in /  1023.4hPa SSW 2mph /  3.2km/h 2mph /  3.2km/h 82% 0in /  0.0mm 21 W/m2
06:48 52.2 °F /  11.2 °C 46.6 °F /  8.1 °C 30.2in /  1023.4hPa Calm     81% 0in /  0.0mm 23 W/m2
06:53 52.3 °F /  11.3 °C 46.4 °F /  8 °C 30.2in /  1023.4hPa Calm   1mph /  1.6km/h 80% 0in /  0.0mm 26 W/m2
06:58 52.5 °F /  11.4 °C 46.6 °F /  8.1 °C 30.2in /  1023.4hPa Calm     80% 0in /  0.0mm 28 W/m2
07:03 52.9 °F /  11.6 °C 46.9 °F /  8.3 °C 30.2in /  1023.7hPa SSW 0.9mph /  1.4km/h 1mph /  1.6km/h 80% 0in /  0.0mm 30 W/m2
07:08 53.1 °F /  11.7 °C 46.8 °F /  8.2 °C 30.2in /  1023.7hPa SW 0.9mph /  1.4km/h 2mph /  3.2km/h 79% 0in /  0.0mm 32 W/m2
07:13 53.2 °F /  11.8 °C 46.9 °F /  8.3 °C 30.2in /  1023.7hPa Calm   1mph /  1.6km/h 79% 0in /  0.0mm 33 W/m2
07:18 53.4 °F /  11.9 °C 46.8 °F /  8.2 °C 30.2in /  1023.7hPa Calm   2mph /  3.2km/h 78% 0in /  0.0mm 81 W/m2
07:23 53.8 °F /  12.1 °C 47.1 °F /  8.4 °C 30.2in /  1023.7hPa NNW 0.9mph /  1.4km/h 2mph /  3.2km/h 78% 0in /  0.0mm 97 W/m2
07:28 54.1 °F /  12.3 °C 47.5 °F /  8.6 °C 30.2in /  1023.7hPa Calm   1mph /  1.6km/h 78% 0in /  0.0mm 109 W/m2
07:33 54.5 °F /  12.5 °C 47.5 °F /  8.6 °C 30.2in /  1023.7hPa Calm   2mph /  3.2km/h 77% 0in /  0.0mm 123 W/m2
07:38 55.2 °F /  12.9 °C 47.8 °F /  8.8 °C 30.2in /  1023.7hPa Calm   2mph /  3.2km/h 76% 0in /  0.0mm 139 W/m2
07:43 55.8 °F /  13.2 °C 48 °F /  8.9 °C 30.2in /  1023.7hPa Calm   3mph /  4.8km/h 75% 0in /  0.0mm 153 W/m2
07:48 56.1 °F /  13.4 °C 48.4 °F /  9.1 °C 30.2in /  1023.7hPa SE 2mph /  3.2km/h 2mph /  3.2km/h 75% 0in /  0.0mm 160 W/m2
07:53 56.5 °F /  13.6 °C 48.4 °F /  9.1 °C 30.2in /  1023.7hPa Calm   1mph /  1.6km/h 74% 0in /  0.0mm 120 W/m2
07:58 56.7 °F /  13.7 °C 48 °F /  8.9 °C 30.2in /  1023.7hPa WNW 0.9mph /  1.4km/h 3mph /  4.8km/h 73% 0in /  0.0mm 74 W/m2
08:03 56.8 °F /  13.8 °C 48.6 °F /  9.2 °C 30.2in /  1023.7hPa East 2mph /  3.2km/h 3mph /  4.8km/h 74% 0in /  0.0mm 53 W/m2
08:08 57.2 °F /  14 °C 48.6 °F /  9.2 °C 30.2in /  1023.7hPa ENE 2mph /  3.2km/h 3mph /  4.8km/h 73% 0in /  0.0mm 54 W/m2
08:13 57.7 °F /  14.3 °C 49.1 °F /  9.5 °C 30.2in /  1023.7hPa ESE 4.9mph /  7.9km/h 7mph /  11.3km/h 73% 0in /  0.0mm 54 W/m2
08:18 57.9 °F /  14.4 °C 48.6 °F /  9.2 °C 30.2in /  1023.7hPa Calm   2mph /  3.2km/h 71% 0in /  0.0mm 54 W/m2
08:23 58.3 °F /  14.6 °C 48.9 °F /  9.4 °C 30.2in /  1023.7hPa East 2mph /  3.2km/h 7mph /  11.3km/h 71% 0in /  0.0mm 56 W/m2
08:28 58.5 °F /  14.7 °C 49.1 °F /  9.5 °C 30.2in /  1023.7hPa Calm   2mph /  3.2km/h 71% 0in /  0.0mm 56 W/m2
08:33 58.6 °F /  14.8 °C 48.9 °F /  9.4 °C 30.2in /  1024.0hPa SE 2mph /  3.2km/h 6mph /  9.7km/h 70% 0in /  0.0mm 58 W/m2
08:38 58.8 °F /  14.9 °C 49.5 °F /  9.7 °C 30.2in /  1024.0hPa ESE 2mph /  3.2km/h 4mph /  6.4km/h 71% 0in /  0.0mm 58 W/m2
08:43 59 °F /  15 °C 49.6 °F /  9.8 °C 30.2in /  1024.0hPa ENE 2mph /  3.2km/h 3mph /  4.8km/h 71% 0in /  0.0mm 60 W/m2
08:48 59.4 °F /  15.2 °C 49.6 °F /  9.8 °C 30.2in /  1024.0hPa East 2mph /  3.2km/h 4mph /  6.4km/h 70% 0in /  0.0mm 60 W/m2
08:53 59.5 °F /  15.3 °C 49.8 °F /  9.9 °C 30.2in /  1024.0hPa NNW 0.9mph /  1.4km/h 4mph /  6.4km/h 70% 0in /  0.0mm 60 W/m2
08:58 59.7 °F /  15.4 °C 50.4 °F /  10.2 °C 30.2in /  1024.0hPa ESE 2mph /  3.2km/h 3mph /  4.8km/h 71% 0in /  0.0mm 62 W/m2
09:03 60.3 °F /  15.7 °C 50.4 °F /  10.2 °C 30.2in /  1024.0hPa East 0.9mph /  1.4km/h 4mph /  6.4km/h 70% 0in /  0.0mm 62 W/m2
09:08 60.4 °F /  15.8 °C 50.5 °F /  10.3 °C 30.2in /  1024.0hPa Calm   2mph /  3.2km/h 70% 0in /  0.0mm 63 W/m2
09:13 60.6 °F /  15.9 °C 50.4 °F /  10.2 °C 30.2in /  1024.0hPa North 0.9mph /  1.4km/h 4mph /  6.4km/h 69% 0in /  0.0mm 65 W/m2
09:18 61 °F /  16.1 °C 51.1 °F /  10.6 °C 30.2in /  1024.0hPa ENE 0.9mph /  1.4km/h 2mph /  3.2km/h 70% 0in /  0.0mm 76 W/m2
09:23 61.3 °F /  16.3 °C 51.4 °F /  10.8 °C 30.2in /  1024.0hPa Calm   4mph /  6.4km/h 70% 0in /  0.0mm 65 W/m2
09:28 61.5 °F /  16.4 °C 51.6 °F /  10.9 °C 30.2in /  1024.0hPa Calm   4mph /  6.4km/h 70% 0in /  0.0mm 67 W/m2
09:38 62.1 °F /  16.7 °C 51.8 °F /  11 °C 30.2in /  1024.0hPa East 2mph /  3.2km/h 3mph /  4.8km/h 69% 0in /  0.0mm 70 W/m2
09:43 62.2 °F /  16.8 °C 52 °F /  11.1 °C 30.2in /  1024.0hPa East 2mph /  3.2km/h 3mph /  4.8km/h 69% 0in /  0.0mm 69 W/m2
09:48 62.6 °F /  17 °C 52.3 °F /  11.3 °C 30.2in /  1024.0hPa SE 2mph /  3.2km/h 4mph /  6.4km/h 69% 0in /  0.0mm 72 W/m2
09:53 62.8 °F /  17.1 °C 52 °F /  11.1 °C 30.2in /  1024.0hPa ESE 2.9mph /  4.7km/h 4mph /  6.4km/h 68% 0in /  0.0mm 163 W/m2
09:58 63.1 °F /  17.3 °C 52.9 °F /  11.6 °C 30.2in /  1024.0hPa ESE 0.9mph /  1.4km/h 2mph /  3.2km/h 69% 0in /  0.0mm 394 W/m2
10:03 63.3 °F /  17.4 °C 52.5 °F /  11.4 °C 30.2in /  1024.0hPa NE 2mph /  3.2km/h 3mph /  4.8km/h 68% 0in /  0.0mm 527 W/m2
10:08 63.7 °F /  17.6 °C 52.9 °F /  11.6 °C 30.2in /  1024.0hPa ENE 2mph /  3.2km/h 4mph /  6.4km/h 68% 0in /  0.0mm 543 W/m2
10:13 64 °F /  17.8 °C 52.9 °F /  11.6 °C 30.2in /  1024.0hPa ENE 0.9mph /  1.4km/h 3mph /  4.8km/h 67% 0in /  0.0mm 554 W/m2
10:18 64.2 °F /  17.9 °C 53.1 °F /  11.7 °C 30.2in /  1024.0hPa ENE 4mph /  6.4km/h 6mph /  9.7km/h 67% 0in /  0.0mm 566 W/m2
10:23 64.4 °F /  18 °C 53.6 °F /  12 °C 30.2in /  1024.0hPa ENE 2mph /  3.2km/h 4mph /  6.4km/h 68% 0in /  0.0mm 582 W/m2
10:28 64.4 °F /  18 °C 53.2 °F /  11.8 °C 30.2in /  1024.0hPa ENE 4mph /  6.4km/h 4mph /  6.4km/h 67% 0in /  0.0mm 592 W/m2
10:33 64.6 °F /  18.1 °C 53.4 °F /  11.9 °C 30.2in /  1024.0hPa ENE 2.9mph /  4.7km/h 4mph /  6.4km/h 67% 0in /  0.0mm 605 W/m2
10:38 64.8 °F /  18.2 °C 54 °F /  12.2 °C 30.2in /  1024.0hPa Calm   3mph /  4.8km/h 68% 0in /  0.0mm 615 W/m2
10:43 65.1 °F /  18.4 °C 54.3 °F /  12.4 °C 30.2in /  1024.0hPa ENE 4mph /  6.4km/h 4mph /  6.4km/h 68% 0in /  0.0mm 629 W/m2
10:48 65.7 °F /  18.7 °C 53.6 °F /  12 °C 30.2in /  1024.0hPa ENE 2.9mph /  4.7km/h 5mph /  8km/h 65% 0in /  0.0mm 642 W/m2
10:53 65.7 °F /  18.7 °C 54.3 °F /  12.4 °C 30.2in /  1024.0hPa East 2mph /  3.2km/h 3mph /  4.8km/h 67% 0in /  0.0mm 652 W/m2
10:58 65.8 °F /  18.8 °C 54.1 °F /  12.3 °C 30.2in /  1024.0hPa East 2.9mph /  4.7km/h 6mph /  9.7km/h 66% 0in /  0.0mm 663 W/m2
11:03 65.7 °F /  18.7 °C 54.3 °F /  12.4 °C 30.2in /  1024.0hPa East 0.9mph /  1.4km/h 4mph /  6.4km/h 67% 0in /  0.0mm 670 W/m2
11:08 65.8 °F /  18.8 °C 54.1 °F /  12.3 °C 30.2in /  1024.0hPa ENE 2mph /  3.2km/h 5mph /  8km/h 66% 0in /  0.0mm 682 W/m2
11:13 66.6 °F /  19.2 °C 54.9 °F /  12.7 °C 30.2in /  1024.0hPa East 0.9mph /  1.4km/h 3mph /  4.8km/h 66% 0in /  0.0mm 694 W/m2
11:18 66.9 °F /  19.4 °C 54.9 °F /  12.7 °C 30.2in /  1024.0hPa East 2mph /  3.2km/h 4mph /  6.4km/h 65% 0in /  0.0mm 705 W/m2
11:23 67.1 °F /  19.5 °C 54.1 °F /  12.3 °C 30.2in /  1024.0hPa NNE 0.9mph /  1.4km/h 1mph /  1.6km/h 63% 0in /  0.0mm 714 W/m2
11:28 67.5 °F /  19.7 °C 54.9 °F /  12.7 °C 30.2in /  1024.0hPa NE 2.9mph /  4.7km/h 4mph /  6.4km/h 64% 0in /  0.0mm 726 W/m2
11:33 67.8 °F /  19.9 °C 55.2 °F /  12.9 °C 30.2in /  1024.0hPa SE 2.9mph /  4.7km/h 4mph /  6.4km/h 64% 0in /  0.0mm 737 W/m2
11:38 68 °F /  20 °C 54.9 °F /  12.7 °C 30.2in /  1023.7hPa West 2mph /  3.2km/h 3mph /  4.8km/h 63% 0in /  0.0mm 744 W/m2
11:43 67.8 °F /  19.9 °C 55.6 °F /  13.1 °C 30.2in /  1024.0hPa NE 2mph /  3.2km/h 2mph /  3.2km/h 65% 0in /  0.0mm 754 W/m2
11:48 68.4 °F /  20.2 °C 55.2 °F /  12.9 °C 30.2in /  1024.0hPa NE 2mph /  3.2km/h 3mph /  4.8km/h 63% 0in /  0.0mm 763 W/m2
11:53 68.5 °F /  20.3 °C 54.5 °F /  12.5 °C 30.2in /  1023.7hPa NE 2mph /  3.2km/h 3mph /  4.8km/h 61% 0in /  0.0mm 772 W/m2
11:58 68.7 °F /  20.4 °C 55.6 °F /  13.1 °C 30.2in /  1023.7hPa ENE 2mph /  3.2km/h 3mph /  4.8km/h 63% 0in /  0.0mm 775 W/m2
12:03 69.3 °F /  20.7 °C 54.9 °F /  12.7 °C 30.2in /  1023.7hPa Calm   5mph /  8km/h 60% 0in /  0.0mm 788 W/m2
12:08 69.4 °F /  20.8 °C 54.9 °F /  12.7 °C 30.2in /  1023.7hPa NW 2mph /  3.2km/h 2mph /  3.2km/h 60% 0in /  0.0mm 791 W/m2
12:13 69.6 °F /  20.9 °C 55.6 °F /  13.1 °C 30.2in /  1023.7hPa ESE 0.9mph /  1.4km/h 6mph /  9.7km/h 61% 0in /  0.0mm 795 W/m2
12:18 70.2 °F /  21.2 °C 55.6 °F /  13.1 °C 30.2in /  1023.7hPa ENE 2.9mph /  4.7km/h 6mph /  9.7km/h 60% 0in /  0.0mm 798 W/m2
12:23 70.3 °F /  21.3 °C 55.8 °F /  13.2 °C 30.2in /  1023.7hPa NE 0.9mph /  1.4km/h 2mph /  3.2km/h 60% 0in /  0.0mm 807 W/m2
12:28 70.5 °F /  21.4 °C 55 °F /  12.8 °C 30.2in /  1023.4hPa WSW 2mph /  3.2km/h 6mph /  9.7km/h 58% 0in /  0.0mm 812 W/m2
12:33 70.3 °F /  21.3 °C 55.4 °F /  13 °C 30.2in /  1023.4hPa SSE 4.9mph /  7.9km/h 6mph /  9.7km/h 59% 0in /  0.0mm 814 W/m2
12:38 70.9 °F /  21.6 °C 54.9 °F /  12.7 °C 30.2in /  1023.4hPa North 0.9mph /  1.4km/h 3mph /  4.8km/h 57% 0in /  0.0mm 826 W/m2
12:43 72 °F /  22.2 °C 55.9 °F /  13.3 °C 30.2in /  1023.4hPa ENE 2.9mph /  4.7km/h 6mph /  9.7km/h 57% 0in /  0.0mm 823 W/m2
12:48 72.1 °F /  22.3 °C 56.1 °F /  13.4 °C 30.2in /  1023.4hPa SE 2mph /  3.2km/h 6mph /  9.7km/h 57% 0in /  0.0mm 828 W/m2
12:53 72.1 °F /  22.3 °C 55.6 °F /  13.1 °C 30.2in /  1023.4hPa ESE 0.9mph /  1.4km/h 2mph /  3.2km/h 56% 0in /  0.0mm 830 W/m2
12:58 72.1 °F /  22.3 °C 56.1 °F /  13.4 °C 30.2in /  1023.0hPa NE 2mph /  3.2km/h 6mph /  9.7km/h 57% 0in /  0.0mm 831 W/m2
13:03 72.7 °F /  22.6 °C 55.6 °F /  13.1 °C 30.2in /  1023.0hPa NW 0.9mph /  1.4km/h 2mph /  3.2km/h 55% 0in /  0.0mm 853 W/m2
13:08 73 °F /  22.8 °C 55.9 °F /  13.3 °C 30.2in /  1023.0hPa ESE 2mph /  3.2km/h 5mph /  8km/h 55% 0in /  0.0mm 865 W/m2
13:13 72.9 °F /  22.7 °C 54.7 °F /  12.6 °C 30.2in /  1023.0hPa East 2.9mph /  4.7km/h 5mph /  8km/h 53% 0in /  0.0mm 860 W/m2
13:18 73 °F /  22.8 °C 54.3 °F /  12.4 °C 30.2in /  1022.7hPa ESE 4mph /  6.4km/h 7mph /  11.3km/h 52% 0in /  0.0mm 849 W/m2
13:23 73.8 °F /  23.2 °C 56.1 °F /  13.4 °C 30.2in /  1022.7hPa NNE 0.9mph /  1.4km/h 4mph /  6.4km/h 54% 0in /  0.0mm 861 W/m2
13:28 73.9 °F /  23.3 °C 54.7 °F /  12.6 °C 30.2in /  1022.7hPa North 4mph /  6.4km/h 8mph /  12.9km/h 51% 0in /  0.0mm 858 W/m2
13:33 73.8 °F /  23.2 °C 55 °F /  12.8 °C 30.2in /  1022.7hPa East 2.9mph /  4.7km/h 4mph /  6.4km/h 52% 0in /  0.0mm 865 W/m2
13:38 74.5 °F /  23.6 °C 55.2 °F /  12.9 °C 30.2in /  1022.7hPa SSE 0.9mph /  1.4km/h 8mph /  12.9km/h 51% 0in /  0.0mm 889 W/m2
13:43 74.7 °F /  23.7 °C 55.4 °F /  13 °C 30.2in /  1022.7hPa NE 0.9mph /  1.4km/h 9mph /  14.5km/h 51% 0in /  0.0mm 902 W/m2
13:48 74.7 °F /  23.7 °C 55.4 °F /  13 °C 30.2in /  1022.7hPa NE 4mph /  6.4km/h 5mph /  8km/h 51% 0in /  0.0mm 879 W/m2
13:53 74.7 °F /  23.7 °C 54.3 °F /  12.4 °C 30.2in /  1022.7hPa East 2.9mph /  4.7km/h 9mph /  14.5km/h 49% 0in /  0.0mm 888 W/m2
13:58 74.8 °F /  23.8 °C 54.3 °F /  12.4 °C 30.2in /  1022.4hPa ENE 2mph /  3.2km/h 7mph /  11.3km/h 49% 0in /  0.0mm 905 W/m2
14:04 75.4 °F /  24.1 °C 54.3 °F /  12.4 °C 30.2in /  1022.4hPa ENE 2.9mph /  4.7km/h 9mph /  14.5km/h 48% 0in /  0.0mm 882 W/m2
14:09 75.2 °F /  24 °C 55.2 °F /  12.9 °C 30.2in /  1022.4hPa East 6mph /  9.7km/h 6mph /  9.7km/h 50% 0in /  0.0mm 895 W/m2
14:14 75 °F /  23.9 °C 53.4 °F /  11.9 °C 30.2in /  1022.4hPa East 4mph /  6.4km/h 9mph /  14.5km/h 47% 0in /  0.0mm 909 W/m2
14:19 75.4 °F /  24.1 °C 53.8 °F /  12.1 °C 30.2in /  1022.4hPa NE 4.9mph /  7.9km/h 5mph /  8km/h 47% 0in /  0.0mm 889 W/m2
14:24 75.4 °F /  24.1 °C 54.3 °F /  12.4 °C 30.2in /  1022.4hPa ENE 2mph /  3.2km/h 7mph /  11.3km/h 48% 0in /  0.0mm 902 W/m2
14:29 75.7 °F /  24.3 °C 53.4 °F /  11.9 °C 30.2in /  1022.4hPa ENE 2mph /  3.2km/h 5mph /  8km/h 46% 0in /  0.0mm 904 W/m2
14:34 76.5 °F /  24.7 °C 52.3 °F /  11.3 °C 30.2in /  1022.4hPa NE 4mph /  6.4km/h 6mph /  9.7km/h 43% 0in /  0.0mm 889 W/m2
14:39 76.5 °F /  24.7 °C 52.9 °F /  11.6 °C 30.2in /  1022.0hPa NE 2.9mph /  4.7km/h 7mph /  11.3km/h 44% 0in /  0.0mm 872 W/m2
14:44 76.5 °F /  24.7 °C 52.9 °F /  11.6 °C 30.2in /  1022.0hPa East 4mph /  6.4km/h 8mph /  12.9km/h 44% 0in /  0.0mm 882 W/m2
14:49 76.6 °F /  24.8 °C 54.3 °F /  12.4 °C 30.2in /  1022.0hPa ENE 4.9mph /  7.9km/h 5mph /  8km/h 46% 0in /  0.0mm 884 W/m2
14:54 76.8 °F /  24.9 °C 52 °F /  11.1 °C 30.2in /  1022.0hPa East 2mph /  3.2km/h 4mph /  6.4km/h 42% 0in /  0.0mm 879 W/m2
14:59 76.6 °F /  24.8 °C 53.1 °F /  11.7 °C 30.2in /  1022.0hPa ENE 4mph /  6.4km/h 7mph /  11.3km/h 44% 0in /  0.0mm 886 W/m2
15:04 76.5 °F /  24.7 °C 54.1 °F /  12.3 °C 30.2in /  1022.0hPa NE 4mph /  6.4km/h 6mph /  9.7km/h 46% 0in /  0.0mm 916 W/m2
15:09 76.3 °F /  24.6 °C 52.7 °F /  11.5 °C 30.2in /  1021.7hPa North 0.9mph /  1.4km/h 4mph /  6.4km/h 44% 0in /  0.0mm 872 W/m2
15:14 76.5 °F /  24.7 °C 52.3 °F /  11.3 °C 30.2in /  1021.7hPa NNE 2mph /  3.2km/h 9mph /  14.5km/h 43% 0in /  0.0mm 870 W/m2
15:19 76.5 °F /  24.7 °C 51.6 °F /  10.9 °C 30.2in /  1021.7hPa East 4mph /  6.4km/h 9mph /  14.5km/h 42% 0in /  0.0mm 837 W/m2
15:24 76.8 °F /  24.9 °C 52.7 °F /  11.5 °C 30.2in /  1021.7hPa NE 2mph /  3.2km/h 4mph /  6.4km/h 43% 0in /  0.0mm 842 W/m2
15:29 76.8 °F /  24.9 °C 52 °F /  11.1 °C 30.2in /  1021.3hPa WNW 2.9mph /  4.7km/h 9mph /  14.5km/h 42% 0in /  0.0mm 824 W/m2
15:34 76.5 °F /  24.7 °C 52.3 °F /  11.3 °C 30.2in /  1021.3hPa ENE 2mph /  3.2km/h 3mph /  4.8km/h 43% 0in /  0.0mm 833 W/m2
15:39 76.8 °F /  24.9 °C 54.5 °F /  12.5 °C 30.2in /  1021.3hPa ENE 2.9mph /  4.7km/h 9mph /  14.5km/h 46% 0in /  0.0mm 854 W/m2
15:44 77.4 °F /  25.2 °C 53.1 °F /  11.7 °C 30.2in /  1021.3hPa NE 4mph /  6.4km/h 10mph /  16.1km/h 43% 0in /  0.0mm 814 W/m2
15:49 77 °F /  25 °C 52.9 °F /  11.6 °C 30.2in /  1021.3hPa NNW 2mph /  3.2km/h 6mph /  9.7km/h 43% 0in /  0.0mm 826 W/m2
15:54 77.2 °F /  25.1 °C 53.6 °F /  12 °C 30.2in /  1021.3hPa ENE 4mph /  6.4km/h 7mph /  11.3km/h 44% 0in /  0.0mm 805 W/m2
15:59 77.2 °F /  25.1 °C 52.9 °F /  11.6 °C 30.2in /  1021.3hPa North 2.9mph /  4.7km/h 5mph /  8km/h 43% 0in /  0.0mm 796 W/m2
16:04 76.6 °F /  24.8 °C 53.1 °F /  11.7 °C 30.2in /  1021.3hPa West 6mph /  9.7km/h 6mph /  9.7km/h 44% 0in /  0.0mm 817 W/m2
16:09 76.6 °F /  24.8 °C 53.1 °F /  11.7 °C 30.2in /  1021.3hPa ENE 4.9mph /  7.9km/h 5mph /  8km/h 44% 0in /  0.0mm 227 W/m2
16:14 76.8 °F /  24.9 °C 53.2 °F /  11.8 °C 30.2in /  1021.3hPa WNW 4mph /  6.4km/h 5mph /  8km/h 44% 0in /  0.0mm 752 W/m2
16:19 77.4 °F /  25.2 °C 53.1 °F /  11.7 °C 30.2in /  1021.3hPa NE 2.9mph /  4.7km/h 4mph /  6.4km/h 43% 0in /  0.0mm 766 W/m2
16:24 77.5 °F /  25.3 °C 51.3 °F /  10.7 °C 30.2in /  1021.3hPa NE 2mph /  3.2km/h 9mph /  14.5km/h 40% 0in /  0.0mm 752 W/m2
16:29 77.4 °F /  25.2 °C 52.5 °F /  11.4 °C 30.2in /  1021.3hPa Calm   2mph /  3.2km/h 42% 0in /  0.0mm 735 W/m2
16:34 77.5 °F /  25.3 °C 52 °F /  11.1 °C 30.2in /  1021.3hPa Calm   6mph /  9.7km/h 41% 0in /  0.0mm 745 W/m2
16:39 77.7 °F /  25.4 °C 52.2 °F /  11.2 °C 30.2in /  1021.0hPa Calm   2mph /  3.2km/h 41% 0in /  0.0mm 731 W/m2
16:44 78.3 °F /  25.7 °C 52 °F /  11.1 °C 30.2in /  1021.0hPa ENE 2mph /  3.2km/h 7mph /  11.3km/h 40% 0in /  0.0mm 712 W/m2
16:49 78.3 °F /  25.7 °C 52 °F /  11.1 °C 30.2in /  1021.0hPa SE 0.9mph /  1.4km/h 3mph /  4.8km/h 40% 0in /  0.0mm 647 W/m2
16:54 77.5 °F /  25.3 °C 50.5 °F /  10.3 °C 30.2in /  1021.0hPa Calm   3mph /  4.8km/h 39% 0in /  0.0mm 244 W/m2
16:59 77.5 °F /  25.3 °C 52 °F /  11.1 °C 30.1in /  1020.7hPa ESE 0.9mph /  1.4km/h 6mph /  9.7km/h 41% 0in /  0.0mm 684 W/m2
17:04 77.9 °F /  25.5 °C 52.9 °F /  11.6 °C 30.1in /  1020.7hPa ENE 2mph /  3.2km/h 6mph /  9.7km/h 42% 0in /  0.0mm 643 W/m2
17:09 78.1 °F /  25.6 °C 52.5 °F /  11.4 °C 30.1in /  1020.7hPa ESE 2mph /  3.2km/h 4mph /  6.4km/h 41% 0in /  0.0mm 633 W/m2
17:14 77.5 °F /  25.3 °C 51.3 °F /  10.7 °C 30.1in /  1020.7hPa NE 2.9mph /  4.7km/h 5mph /  8km/h 40% 0in /  0.0mm 98 W/m2
17:19 77 °F /  25 °C 52.2 °F /  11.2 °C 30.1in /  1020.7hPa ESE 0.9mph /  1.4km/h 4mph /  6.4km/h 42% 0in /  0.0mm 97 W/m2
17:24 76.5 °F /  24.7 °C 51.6 °F /  10.9 °C 30.1in /  1020.7hPa SE 2.9mph /  4.7km/h 3mph /  4.8km/h 42% 0in /  0.0mm 84 W/m2
17:29 75.9 °F /  24.4 °C 51.3 °F /  10.7 °C 30.1in /  1020.7hPa East 0.9mph /  1.4km/h 4mph /  6.4km/h 42% 0in /  0.0mm 83 W/m2
17:34 75.7 °F /  24.3 °C 52.3 °F /  11.3 °C 30.1in /  1020.7hPa SW 0.9mph /  1.4km/h 2mph /  3.2km/h 44% 0in /  0.0mm 95 W/m2
17:39 75 °F /  23.9 °C 51.6 °F /  10.9 °C 30.1in /  1020.7hPa West 2mph /  3.2km/h 4mph /  6.4km/h 44% 0in /  0.0mm 107 W/m2
17:44 74.8 °F /  23.8 °C 51.4 °F /  10.8 °C 30.1in /  1020.7hPa West 2mph /  3.2km/h 3mph /  4.8km/h 44% 0in /  0.0mm 105 W/m2
17:49 74.7 °F /  23.7 °C 50 °F /  10 °C 30.1in /  1020.7hPa NW 0.9mph /  1.4km/h 4mph /  6.4km/h 42% 0in /  0.0mm 113 W/m2
17:54 74.8 °F /  23.8 °C 52.7 °F /  11.5 °C 30.1in /  1020.7hPa Calm     46% 0in /  0.0mm 125 W/m2
17:59 74.8 °F /  23.8 °C 53.8 °F /  12.1 °C 30.1in /  1020.7hPa WSW 0.9mph /  1.4km/h 2mph /  3.2km/h 48% 0in /  0.0mm 515 W/m2
18:04 75.6 °F /  24.2 °C 52.7 °F /  11.5 °C 30.1in /  1020.7hPa WNW 0.9mph /  1.4km/h 3mph /  4.8km/h 45% 0in /  0.0mm 520 W/m2
18:09 76.3 °F /  24.6 °C 52.2 °F /  11.2 °C 30.1in /  1020.7hPa Calm   2mph /  3.2km/h 43% 0in /  0.0mm 508 W/m2
18:14 77.2 °F /  25.1 °C 50.4 °F /  10.2 °C 30.1in /  1020.7hPa Calm   2mph /  3.2km/h 39% 0in /  0.0mm 490 W/m2
18:19 77.7 °F /  25.4 °C 50.7 °F /  10.4 °C 30.1in /  1020.7hPa NW 0.9mph /  1.4km/h 3mph /  4.8km/h 39% 0in /  0.0mm 480 W/m2
18:24 78.6 °F /  25.9 °C 52.3 °F /  11.3 °C 30.1in /  1020.7hPa Calm   2mph /  3.2km/h 40% 0in /  0.0mm 459 W/m2
18:29 78.8 °F /  26 °C 51.8 °F /  11 °C 30.1in /  1020.7hPa Calm   3mph /  4.8km/h 39% 0in /  0.0mm 425 W/m2
18:34 78.6 °F /  25.9 °C 50.9 °F /  10.5 °C 30.1in /  1020.7hPa NNW 0.9mph /  1.4km/h 3mph /  4.8km/h 38% 0in /  0.0mm 411 W/m2
18:39 78.6 °F /  25.9 °C 51.6 °F /  10.9 °C 30.1in /  1020.7hPa WNW 4mph /  6.4km/h 4mph /  6.4km/h 39% 0in /  0.0mm 255 W/m2
18:44 78.3 °F /  25.7 °C 50.5 °F /  10.3 °C 30.1in /  1020.7hPa NW 0.9mph /  1.4km/h 5mph /  8km/h 38% 0in /  0.0mm 128 W/m2
18:49 78.1 °F /  25.6 °C 50.4 °F /  10.2 °C 30.1in /  1020.7hPa NNW 2mph /  3.2km/h 3mph /  4.8km/h 38% 0in /  0.0mm 123 W/m2
18:54 77.7 °F /  25.4 °C 50 °F /  10 °C 30.1in /  1020.7hPa ESE 0.9mph /  1.4km/h 4mph /  6.4km/h 38% 0in /  0.0mm 118 W/m2
18:59 77.7 °F /  25.4 °C 50 °F /  10 °C 30.1in /  1020.7hPa NNW 0.9mph /  1.4km/h 1mph /  1.6km/h 38% 0in /  0.0mm 102 W/m2
19:04 78.1 °F /  25.6 °C 49.6 °F /  9.8 °C 30.1in /  1020.7hPa ESE 2mph /  3.2km/h 5mph /  8km/h 37% 0in /  0.0mm 97 W/m2
19:09 78.1 °F /  25.6 °C 50.4 °F /  10.2 °C 30.1in /  1020.3hPa East 0.9mph /  1.4km/h 2mph /  3.2km/h 38% 0in /  0.0mm 74 W/m2
19:14 77.7 °F /  25.4 °C 51.4 °F /  10.8 °C 30.1in /  1020.3hPa NE 0.9mph /  1.4km/h 5mph /  8km/h 40% 0in /  0.0mm 77 W/m2
19:19 77.7 °F /  25.4 °C 52.9 °F /  11.6 °C 30.1in /  1020.3hPa Calm   1mph /  1.6km/h 42% 0in /  0.0mm 65 W/m2
19:24 77.5 °F /  25.3 °C 53.2 °F /  11.8 °C 30.1in /  1020.3hPa Calm   1mph /  1.6km/h 43% 0in /  0.0mm 62 W/m2
19:29 77.5 °F /  25.3 °C 54 °F /  12.2 °C 30.1in /  1020.3hPa Calm   1mph /  1.6km/h 44% 0in /  0.0mm 56 W/m2
19:34 77.4 °F /  25.2 °C 55.6 °F /  13.1 °C 30.1in /  1020.3hPa Calm   1mph /  1.6km/h 47% 0in /  0.0mm 53 W/m2
19:39 77 °F /  25 °C 54.7 °F /  12.6 °C 30.1in /  1020.3hPa East 0.9mph /  1.4km/h 2mph /  3.2km/h 46% 0in /  0.0mm 47 W/m2
19:44 76.6 °F /  24.8 °C 54.9 °F /  12.7 °C 30.1in /  1020.3hPa East 0.9mph /  1.4km/h 1mph /  1.6km/h 47% 0in /  0.0mm 39 W/m2
19:49 76.1 °F /  24.5 °C 55 °F /  12.8 °C 30.1in /  1020.3hPa Calm     48% 0in /  0.0mm 46 W/m2
19:54 75.6 °F /  24.2 °C 54.5 °F /  12.5 °C 30.1in /  1020.3hPa Calm   1mph /  1.6km/h 48% 0in /  0.0mm 37 W/m2
19:59 75 °F /  23.9 °C 54.5 °F /  12.5 °C 30.1in /  1020.3hPa Calm     49% 0in /  0.0mm 33 W/m2
20:04 74.5 °F /  23.6 °C 54.7 °F /  12.6 °C 30.1in /  1020.3hPa Calm     50% 0in /  0.0mm 26 W/m2
20:09 73.8 °F /  23.2 °C 54.5 °F /  12.5 °C 30.1in /  1020.3hPa Calm     51% 0in /  0.0mm 23 W/m2
20:14 73 °F /  22.8 °C 53.8 °F /  12.1 °C 30.1in /  1020.3hPa ESE 0.9mph /  1.4km/h 2mph /  3.2km/h 51% 0in /  0.0mm 25 W/m2
20:19 72.3 °F /  22.4 °C 53.8 °F /  12.1 °C 30.1in /  1020.7hPa ESE 0.9mph /  1.4km/h 2mph /  3.2km/h 52% 0in /  0.0mm 28 W/m2
20:24 71.8 °F /  22.1 °C 53.2 °F /  11.8 °C 30.1in /  1020.7hPa ESE 0.9mph /  1.4km/h 2mph /  3.2km/h 52% 0in /  0.0mm 23 W/m2
20:29 71.2 °F /  21.8 °C 53.2 °F /  11.8 °C 30.1in /  1020.7hPa ESE 0.9mph /  1.4km/h 1mph /  1.6km/h 53% 0in /  0.0mm 21 W/m2
20:34 70.5 °F /  21.4 °C 52.5 °F /  11.4 °C 30.1in /  1020.7hPa SSE 0.9mph /  1.4km/h 3mph /  4.8km/h 53% 0in /  0.0mm 21 W/m2
20:39 70 °F /  21.1 °C 52.5 °F /  11.4 °C 30.1in /  1020.7hPa Calm   1mph /  1.6km/h 54% 0in /  0.0mm 18 W/m2
20:44 69.6 °F /  20.9 °C 53.2 °F /  11.8 °C 30.1in /  1020.7hPa Calm     56% 0in /  0.0mm 14 W/m2
20:49 69.1 °F /  20.6 °C 52.2 °F /  11.2 °C 30.1in /  1020.7hPa Calm     55% 0in /  0.0mm 9 W/m2
20:54 68.7 °F /  20.4 °C 52.3 °F /  11.3 °C 30.1in /  1020.7hPa Calm     56% 0in /  0.0mm 7 W/m2
20:59 68.2 °F /  20.1 °C 52.3 °F /  11.3 °C 30.1in /  1020.7hPa Calm   1mph /  1.6km/h 57% 0in /  0.0mm 0 W/m2
21:04 67.8 °F /  19.9 °C 52 °F /  11.1 °C 30.1in /  1020.7hPa Calm     57% 0in /  0.0mm 0 W/m2
21:09 67.5 °F /  19.7 °C 52.2 °F /  11.2 °C 30.1in /  1020.7hPa Calm     58% 0in /  0.0mm 0 W/m2
21:14 66.9 °F /  19.4 °C 52.5 °F /  11.4 °C 30.1in /  1020.7hPa Calm     60% 0in /  0.0mm 0 W/m2
21:19 66.6 °F /  19.2 °C 52.2 °F /  11.2 °C 30.1in /  1020.7hPa Calm     60% 0in /  0.0mm 0 W/m2
21:24 66 °F /  18.9 °C 51.8 °F /  11 °C 30.1in /  1020.7hPa Calm     60% 0in /  0.0mm 0 W/m2
21:29 65.7 °F /  18.7 °C 51.8 °F /  11 °C 30.1in /  1020.7hPa Calm     61% 0in /  0.0mm 0 W/m2
21:34 65.3 °F /  18.5 °C 52 °F /  11.1 °C 30.1in /  1020.7hPa Calm     62% 0in /  0.0mm 0 W/m2
21:39 64.9 °F /  18.3 °C 51.6 °F /  10.9 °C 30.1in /  1020.7hPa Calm     62% 0in /  0.0mm 0 W/m2
21:44 64.6 °F /  18.1 °C 51.6 °F /  10.9 °C 30.1in /  1020.7hPa Calm     63% 0in /  0.0mm 0 W/m2
21:49 64.2 °F /  17.9 °C 51.8 °F /  11 °C 30.1in /  1020.7hPa Calm     64% 0in /  0.0mm 0 W/m2
21:54 63.9 °F /  17.7 °C 51.4 °F /  10.8 °C 30.1in /  1020.7hPa Calm     64% 0in /  0.0mm 0 W/m2
21:59 63.7 °F /  17.6 °C 51.6 °F /  10.9 °C 30.1in /  1020.7hPa Calm     65% 0in /  0.0mm 0 W/m2
22:04 63.5 °F /  17.5 °C 51.4 °F /  10.8 °C 30.1in /  1020.7hPa Calm     65% 0in /  0.0mm 0 W/m2
22:09 63.1 °F /  17.3 °C 51.3 °F /  10.7 °C 30.1in /  1020.7hPa Calm     65% 0in /  0.0mm 0 W/m2
22:14 63.1 °F /  17.3 °C 51.6 °F /  10.9 °C 30.2in /  1021.0hPa Calm     66% 0in /  0.0mm 0 W/m2
22:19 63 °F /  17.2 °C 51.4 °F /  10.8 °C 30.2in /  1021.0hPa Calm     66% 0in /  0.0mm 0 W/m2
22:24 62.8 °F /  17.1 °C 51.6 °F /  10.9 °C 30.2in /  1021.0hPa Calm     67% 0in /  0.0mm 0 W/m2
22:29 62.4 °F /  16.9 °C 51.3 °F /  10.7 °C 30.2in /  1021.0hPa SSE 0.9mph /  1.4km/h 1mph /  1.6km/h 67% 0in /  0.0mm 0 W/m2
22:34 62.2 °F /  16.8 °C 51.1 °F /  10.6 °C 30.2in /  1021.0hPa Calm     67% 0in /  0.0mm 0 W/m2
22:40 62.1 °F /  16.7 °C 51.4 °F /  10.8 °C 30.2in /  1021.0hPa Calm     68% 0in /  0.0mm 0 W/m2
22:45 61.9 °F /  16.6 °C 51.3 °F /  10.7 °C 30.2in /  1021.0hPa Calm     68% 0in /  0.0mm 0 W/m2
22:50 61.5 °F /  16.4 °C 51.3 °F /  10.7 °C 30.2in /  1021.0hPa Calm     69% 0in /  0.0mm 0 W/m2
22:55 61.3 °F /  16.3 °C 51.4 °F /  10.8 °C 30.2in /  1021.0hPa Calm   1mph /  1.6km/h 70% 0in /  0.0mm 0 W/m2
23:00 61.2 °F /  16.2 °C 51.3 °F /  10.7 °C 30.2in /  1021.0hPa Calm     70% 0in /  0.0mm 0 W/m2
23:05 61 °F /  16.1 °C 51.1 °F /  10.6 °C 30.2in /  1021.0hPa Calm     70% 0in /  0.0mm 0 W/m2
23:10 61 °F /  16.1 °C 51.4 °F /  10.8 °C 30.2in /  1021.0hPa Calm     71% 0in /  0.0mm 0 W/m2
23:15 60.6 °F /  15.9 °C 51.1 °F /  10.6 °C 30.2in /  1021.0hPa Calm     71% 0in /  0.0mm 0 W/m2
23:20 60.4 °F /  15.8 °C 51.4 °F /  10.8 °C 30.2in /  1021.0hPa Calm   1mph /  1.6km/h 72% 0in /  0.0mm 0 W/m2
23:25 60.3 °F /  15.7 °C 51.3 °F /  10.7 °C 30.2in /  1021.0hPa Calm     72% 0in /  0.0mm 0 W/m2
23:30 60.3 °F /  15.7 °C 51.3 °F /  10.7 °C 30.2in /  1021.0hPa Calm     72% 0in /  0.0mm 0 W/m2
23:35 59.9 °F /  15.5 °C 51.3 °F /  10.7 °C 30.2in /  1021.3hPa Calm     73% 0in /  0.0mm 0 W/m2
23:40 59.7 °F /  15.4 °C 51.1 °F /  10.6 °C 30.2in /  1021.3hPa Calm     73% 0in /  0.0mm 0 W/m2
23:45 59.5 °F /  15.3 °C 51.3 °F /  10.7 °C 30.2in /  1021.3hPa Calm     74% 0in /  0.0mm 0 W/m2
23:50 59.4 °F /  15.2 °C 51.1 °F /  10.6 °C 30.2in /  1021.3hPa Calm     74% 0in /  0.0mm 0 W/m2
23:55 59.4 °F /  15.2 °C 51.4 °F /  10.8 °C 30.2in /  1021.3hPa SSE 0.9mph /  1.4km/h 1mph /  1.6km/h 75% 0in /  0.0mm 0 W/m2
Juneau County Weather
Compliments of Weather Underground - 4 mb